Time;durP1;ratioP1;P1;durP2;ratioP2;P2;SDS_P1;SDS_P2;PMS_P1;PMS_P2;Temp;Humidity;BMP_temperature;BMP_pressure;BME280_temperature;BME280_humidity;BME280_pressure;Samples;Min_cycle;Max_cycle;Signal;HPM_P1;HPM_P2
2021/04/20 00:01:25;;;;;;;27.58;10.48;;;30.30;73.60;;;;;;5072378;28;20043;-49
2021/04/20 00:03:52;;;;;;;29.05;9.65;;;30.20;73.40;;;;;;5094481;28;20032;-53
2021/04/20 00:06:20;;;;;;;22.75;9.50;;;30.20;73.20;;;;;;5095810;28;20023;-54
2021/04/20 00:08:47;;;;;;;21.83;9.05;;;30.20;73.40;;;;;;5095455;28;20021;-48
2021/04/20 00:11:15;;;;;;;23.00;9.18;;;30.20;73.30;;;;;;5076261;28;20025;-54
2021/04/20 00:13:42;;;;;;;27.92;8.73;;;30.10;73.30;;;;;;5094170;28;20032;-50
2021/04/20 00:16:08;;;;;;;20.45;8.20;;;30.10;73.20;;;;;;5095509;28;20058;-51
2021/04/20 00:18:35;;;;;;;23.50;8.52;;;30.10;73.10;;;;;;5094439;28;20012;-47
2021/04/20 00:21:02;;;;;;;22.85;8.48;;;30.00;73.10;;;;;;5072101;28;20435;-45
2021/04/20 00:23:28;;;;;;;24.40;7.72;;;30.00;72.90;;;;;;5074983;28;20097;-49
2021/04/20 00:25:55;;;;;;;20.13;7.70;;;30.00;72.90;;;;;;5094908;28;20019;-49
2021/04/20 00:28:29;;;;;;;21.15;8.13;;;30.00;72.90;;;;;;5095376;28;20017;-55
2021/04/20 00:30:56;;;;;;;23.45;7.70;;;30.00;72.80;;;;;;5094581;28;20004;-50
2021/04/20 00:33:23;;;;;;;23.08;7.93;;;29.90;72.50;;;;;;5093763;28;20016;-52
2021/04/20 00:35:50;;;;;;;24.10;7.60;;;29.90;72.50;;;;;;5093458;28;20016;-53
2021/04/20 00:38:17;;;;;;;24.08;8.73;;;29.90;72.40;;;;;;5094542;28;20077;-46
2021/04/20 00:40:44;;;;;;;22.92;7.65;;;29.90;72.40;;;;;;5092613;28;20159;-47
2021/04/20 00:43:11;;;;;;;24.00;8.32;;;29.80;72.40;;;;;;5072098;28;20028;-46
2021/04/20 00:45:39;;;;;;;21.15;7.13;;;29.80;72.30;;;;;;5070276;28;20036;-48
2021/04/20 00:48:07;;;;;;;24.73;8.05;;;29.80;72.30;;;;;;5105251;28;20079;-45
2021/04/20 00:50:39;;;;;;;21.77;7.65;;;29.70;72.30;;;;;;5104975;28;20027;-51
2021/04/20 00:53:07;;;;;;;22.45;8.23;;;29.70;72.20;;;;;;5098737;28;20075;-48
2021/04/20 00:55:35;;;;;;;25.08;8.18;;;29.70;72.00;;;;;;5093748;28;20016;-49
2021/04/20 00:58:03;;;;;;;23.65;8.18;;;29.70;71.90;;;;;;5089875;28;20162;-44
2021/04/20 01:00:32;;;;;;;19.73;7.30;;;29.70;72.00;;;;;;5084327;28;20269;-45
2021/04/20 01:03:00;;;;;;;25.65;8.05;;;29.70;71.80;;;;;;5084415;28;20028;-56
2021/04/20 01:05:33;;;;;;;20.92;7.93;;;29.60;71.90;;;;;;5084208;28;20336;-47
2021/04/20 01:08:05;;;;;;;18.38;8.38;;;29.60;71.80;;;;;;5066373;28;20297;-50
2021/04/20 01:10:34;;;;;;;21.60;7.43;;;29.60;71.70;;;;;;5066267;28;20016;-47
2021/04/20 01:13:05;;;;;;;20.77;7.35;;;29.60;71.70;;;;;;5066477;28;20024;-54
2021/04/20 01:15:33;;;;;;;21.65;6.95;;;29.60;71.80;;;;;;5084040;28;20021;-45
2021/04/20 01:18:21;;;;;;;26.55;7.28;;;29.50;71.80;;;;;;5083863;28;20047;-46
2021/04/20 01:20:54;;;;;;;20.67;7.63;;;29.50;71.70;;;;;;5083869;28;20068;-49
2021/04/20 01:23:46;;;;;;;20.73;7.22;;;29.50;71.80;;;;;;5066261;28;20032;-50
2021/04/20 01:26:14;;;;;;;23.95;8.50;;;29.40;71.70;;;;;;5084223;28;20021;-47
2021/04/20 01:28:43;;;;;;;20.95;7.15;;;29.40;71.70;;;;;;5084479;28;20057;-48
2021/04/20 01:31:13;;;;;;;20.27;7.03;;;29.40;71.70;;;;;;5084281;28;20079;-44
2021/04/20 01:33:41;;;;;;;21.70;7.32;;;29.40;71.70;;;;;;5084373;28;20297;-50
2021/04/20 01:36:14;;;;;;;21.55;6.80;;;29.40;71.60;;;;;;5084138;28;20084;-50
2021/04/20 01:38:51;;;;;;;19.73;6.57;;;29.30;71.50;;;;;;5084088;28;20020;-46
2021/04/20 01:41:20;;;;;;;21.95;6.90;;;29.30;71.30;;;;;;5083768;28;20035;-46
2021/04/20 01:43:47;;;;;;;17.90;7.07;;;29.30;71.40;;;;;;5083921;28;20025;-49
2021/04/20 01:46:16;;;;;;;20.50;6.95;;;29.30;71.40;;;;;;5083684;28;20301;-47
2021/04/20 01:48:43;;;;;;;21.52;6.60;;;29.20;71.20;;;;;;5083965;28;20317;-48
2021/04/20 01:51:13;;;;;;;20.85;7.05;;;29.20;71.20;;;;;;5083844;28;20244;-48
2021/04/20 01:53:40;;;;;;;21.65;6.80;;;29.20;71.40;;;;;;5083527;28;20024;-50
2021/04/20 01:56:09;;;;;;;21.15;7.32;;;29.20;71.20;;;;;;5084501;28;20088;-50
2021/04/20 01:58:39;;;;;;;27.50;7.18;;;29.10;71.20;;;;;;5088017;28;20028;-52
2021/04/20 02:01:16;;;;;;;30.75;8.38;;;29.10;71.30;;;;;;5087730;28;20066;-56
2021/04/20 02:03:47;;;;;;;21.23;7.38;;;29.10;71.10;;;;;;5069932;28;20074;-55
2021/04/20 02:06:17;;;;;;;25.67;8.15;;;29.00;71.40;;;;;;5087462;28;20051;-52
2021/04/20 02:08:45;;;;;;;21.98;7.43;;;29.00;71.40;;;;;;5087901;28;20046;-53
2021/04/20 02:11:16;;;;;;;18.50;6.85;;;29.00;71.20;;;;;;5087056;28;20343;-53
2021/04/20 02:13:44;;;;;;;23.77;7.53;;;29.00;71.40;;;;;;5087551;28;20324;-54
2021/04/20 02:16:12;;;;;;;26.60;7.57;;;28.90;71.00;;;;;;5087389;28;20038;-57
2021/04/20 02:18:45;;;;;;;22.67;8.52;;;29.00;71.10;;;;;;5087049;28;20025;-53
2021/04/20 02:21:19;;;;;;;22.60;8.38;;;28.90;71.20;;;;;;5097307;28;20048;-52
2021/04/20 02:23:49;;;;;;;18.23;7.78;;;28.90;71.30;;;;;;5097279;28;20087;-51
2021/04/20 02:26:26;;;;;;;24.75;7.35;;;28.90;71.40;;;;;;5097926;28;20011;-59
2021/04/20 02:28:55;;;;;;;24.27;7.80;;;28.90;71.50;;;;;;5097648;28;20020;-54
2021/04/20 02:31:22;;;;;;;17.27;7.13;;;28.90;71.50;;;;;;5080100;28;20023;-52
2021/04/20 02:33:50;;;;;;;19.00;7.63;;;28.90;71.40;;;;;;5078587;28;20046;-51
2021/04/20 02:36:17;;;;;;;22.70;7.70;;;28.90;71.50;;;;;;5095373;28;20313;-50
2021/04/20 02:38:46;;;;;;;23.02;7.82;;;28.80;71.80;;;;;;5096132;28;20102;-54
2021/04/20 02:41:18;;;;;;;15.57;7.00;;;28.80;71.80;;;;;;5097695;28;20031;-52
2021/04/20 02:43:46;;;;;;;20.38;7.53;;;28.80;71.50;;;;;;5096503;28;20239;-51
2021/04/20 02:46:14;;;;;;;19.15;6.97;;;28.80;71.00;;;;;;5095547;28;20016;-59
2021/04/20 02:48:41;;;;;;;22.08;7.38;;;28.80;70.80;;;;;;5101443;28;20069;-54
2021/04/20 02:51:13;;;;;;;18.33;8.23;;;28.80;69.90;;;;;;5106629;28;20325;-52
2021/04/20 02:53:43;;;;;;;20.10;7.05;;;28.80;69.60;;;;;;5096604;28;20020;-57
2021/04/20 02:56:15;;;;;;;17.92;7.40;;;28.80;69.10;;;;;;5095598;28;20047;-54
2021/04/20 02:58:45;;;;;;;20.63;7.20;;;28.80;69.10;;;;;;5078251;28;20027;-51
2021/04/20 03:01:24;;;;;;;17.30;6.38;;;28.70;68.80;;;;;;5097136;28;20083;-56
2021/04/20 03:03:51;;;;;;;17.20;6.55;;;28.80;68.60;;;;;;5106794;28;20027;-51
2021/04/20 03:06:20;;;;;;;12.98;6.00;;;28.70;68.40;;;;;;5106614;28;20026;-56
2021/04/20 03:08:47;;;;;;;15.95;6.15;;;28.80;68.40;;;;;;5105697;28;20231;-51
2021/04/20 03:11:29;;;;;;;15.77;6.00;;;28.70;67.90;;;;;;5106513;28;20018;-52
2021/04/20 03:14:00;;;;;;;19.77;6.43;;;28.70;67.90;;;;;;5107000;28;20091;-54
2021/04/20 03:16:27;;;;;;;14.55;5.95;;;28.70;68.00;;;;;;5106312;28;20036;-53
2021/04/20 03:18:53;;;;;;;14.23;5.60;;;28.70;68.40;;;;;;5106737;28;20020;-54
2021/04/20 03:21:22;;;;;;;14.65;5.65;;;28.70;67.80;;;;;;5106484;28;20048;-52
2021/04/20 03:23:49;;;;;;;18.58;5.65;;;28.70;67.50;;;;;;5106481;28;20061;-54
2021/04/20 03:26:25;;;;;;;18.95;6.30;;;28.70;67.40;;;;;;5106391;28;20020;-55
2021/04/20 03:28:57;;;;;;;21.95;5.93;;;28.70;67.00;;;;;;5100775;28;20090;-52
2021/04/20 03:31:25;;;;;;;16.17;5.65;;;28.60;67.50;;;;;;5076410;28;20082;-52
2021/04/20 03:34:10;;;;;;;13.68;5.10;;;28.60;67.20;;;;;;5078127;28;20024;-54
2021/04/20 03:36:41;;;;;;;11.90;5.03;;;28.60;67.10;;;;;;5096031;28;20027;-55
2021/04/20 03:39:14;;;;;;;18.73;6.20;;;28.60;67.10;;;;;;5095074;28;20194;-51
2021/04/20 03:42:05;;;;;;;15.77;5.47;;;28.60;67.00;;;;;;5106119;28;20304;-51
2021/04/20 03:44:55;;;;;;;15.02;5.65;;;28.50;66.70;;;;;;5087968;28;20036;-52
2021/04/20 03:47:30;;;;;;;16.33;5.80;;;28.50;67.00;;;;;;5104985;28;20016;-53
2021/04/20 03:49:58;;;;;;;15.38;4.82;;;28.50;67.10;;;;;;5105839;28;20020;-57
2021/04/20 03:52:40;;;;;;;15.15;5.53;;;28.50;67.00;;;;;;5104953;28;20023;-55
2021/04/20 03:55:11;;;;;;;19.95;5.32;;;28.40;67.10;;;;;;5106527;28;20072;-50
2021/04/20 03:57:42;;;;;;;17.17;5.68;;;28.40;67.20;;;;;;5106513;28;20336;-50
2021/04/20 04:00:12;;;;;;;12.52;4.70;;;28.40;67.10;;;;;;5106352;28;20044;-52
2021/04/20 04:02:42;;;;;;;14.25;4.68;;;28.40;66.90;;;;;;5106291;28;20024;-51
2021/04/20 04:05:17;;;;;;;12.93;4.60;;;28.40;67.20;;;;;;5106060;28;20103;-51
2021/04/20 04:07:48;;;;;;;22.88;5.40;;;28.30;67.10;;;;;;5106273;28;20020;-52
2021/04/20 04:10:16;;;;;;;15.00;5.10;;;28.30;67.00;;;;;;5106331;28;20083;-51
2021/04/20 04:12:48;;;;;;;18.33;4.88;;;28.30;66.90;;;;;;5105995;28;20079;-51
2021/04/20 04:28:48;;;;;;;13.93;4.40;;;28.20;66.00;;;;;;5106121;28;20320;-51
2021/04/20 04:31:17;;;;;;;11.48;4.07;;;28.20;65.50;;;;;;5105805;28;20302;-55
2021/04/20 04:33:46;;;;;;;12.65;4.32;;;28.20;65.40;;;;;;5105878;28;20028;-55
2021/04/20 04:36:15;;;;;;;15.90;4.50;;;28.20;65.30;;;;;;5105758;28;20073;-57
2021/04/20 04:38:45;;;;;;;11.32;4.28;;;28.20;65.30;;;;;;5105908;28;20383;-50
2021/04/20 04:41:13;;;;;;;16.45;4.80;;;28.20;65.30;;;;;;5104696;28;20080;-58
2021/04/20 04:43:42;;;;;;;13.18;4.38;;;28.20;65.20;;;;;;5105608;28;20035;-50
2021/04/20 04:46:08;;;;;;;11.43;4.43;;;28.10;65.10;;;;;;5105357;28;20020;-59
2021/04/20 04:48:37;;;;;;;15.65;4.35;;;28.10;65.00;;;;;;5105860;28;20138;-57
2021/04/20 04:51:04;;;;;;;12.88;4.82;;;28.10;65.10;;;;;;5105482;28;20080;-54
2021/04/20 04:53:33;;;;;;;10.93;4.50;;;28.10;65.20;;;;;;5087421;28;20046;-55
2021/04/20 04:56:03;;;;;;;12.20;4.65;;;28.00;65.40;;;;;;5105317;28;20031;-50
2021/04/20 04:58:31;;;;;;;14.48;4.60;;;28.00;65.50;;;;;;5105486;28;20032;-52
2021/04/20 05:01:02;;;;;;;18.38;4.05;;;28.00;65.60;;;;;;5105053;28;20023;-54
2021/04/20 05:03:29;;;;;;;13.77;4.30;;;28.00;65.60;;;;;;5105348;28;20035;-56
2021/04/20 05:06:00;;;;;;;13.60;4.65;;;28.00;65.80;;;;;;5105116;28;20024;-51
2021/04/20 05:08:27;;;;;;;14.38;4.82;;;28.00;66.00;;;;;;5104932;28;20098;-53
2021/04/20 05:11:02;;;;;;;11.23;4.10;;;27.90;65.90;;;;;;5105148;28;20022;-51
2021/04/20 05:13:30;;;;;;;13.98;4.50;;;27.90;65.80;;;;;;5105302;28;20261;-52
2021/04/20 05:16:04;;;;;;;11.73;4.40;;;27.90;65.80;;;;;;5105004;28;20339;-50
2021/04/20 05:18:33;;;;;;;15.48;4.43;;;27.90;65.70;;;;;;5105091;28;20028;-51
2021/04/20 05:20:59;;;;;;;10.13;4.40;;;27.90;65.40;;;;;;5104719;28;20085;-52
2021/04/20 05:23:26;;;;;;;17.48;4.10;;;27.90;65.50;;;;;;5105033;28;20028;-51
2021/04/20 05:25:53;;;;;;;14.02;4.40;;;27.90;65.10;;;;;;5104732;28;20027;-52
2021/04/20 05:28:23;;;;;;;14.13;4.15;;;27.90;65.40;;;;;;5104839;28;20040;-53
2021/04/20 05:30:53;;;;;;;13.95;4.45;;;27.90;65.50;;;;;;5104160;28;20209;-51
2021/04/20 05:33:20;;;;;;;11.45;3.90;;;27.90;65.50;;;;;;5104834;28;20024;-54
2021/04/20 05:35:46;;;;;;;10.35;4.30;;;27.80;65.20;;;;;;5086491;28;20134;-56
2021/04/20 05:38:13;;;;;;;14.65;4.25;;;27.80;65.50;;;;;;5104784;28;20028;-50
2021/04/20 05:40:42;;;;;;;10.50;4.20;;;27.80;65.40;;;;;;5086666;28;20024;-49
2021/04/20 05:43:08;;;;;;;14.15;3.95;;;27.80;65.80;;;;;;5104481;28;20031;-51
2021/04/20 05:45:35;;;;;;;15.98;4.07;;;27.80;65.60;;;;;;5104584;28;20016;-53
2021/04/20 05:48:02;;;;;;;12.82;4.47;;;27.80;65.50;;;;;;5104544;28;20299;-50
2021/04/20 05:50:31;;;;;;;10.85;4.28;;;27.70;65.20;;;;;;5104460;28;20019;-52
2021/04/20 05:52:59;;;;;;;13.10;3.72;;;27.80;65.30;;;;;;5104419;28;20016;-52
2021/04/20 05:55:27;;;;;;;11.65;3.83;;;27.70;65.20;;;;;;5104470;28;20066;-51
2021/04/20 05:57:55;;;;;;;11.10;4.15;;;27.80;65.60;;;;;;5104292;28;20031;-51
2021/04/20 06:00:23;;;;;;;14.10;4.30;;;27.70;65.60;;;;;;5104418;28;20024;-51
2021/04/20 06:02:52;;;;;;;12.90;4.43;;;27.70;65.40;;;;;;5104626;28;20031;-54
2021/04/20 06:05:23;;;;;;;13.85;4.53;;;27.70;65.40;;;;;;5104006;28;20020;-54
2021/04/20 06:07:55;;;;;;;9.45;4.15;;;27.70;65.50;;;;;;5104319;28;20016;-50
2021/04/20 06:10:22;;;;;;;;;;;27.60;66.00;;;;;;5104729;28;20016;-52
2021/04/20 06:12:49;;;;;;;13.20;4.53;;;27.60;66.40;;;;;;5104525;28;19903;-53
2021/04/20 06:15:19;;;;;;;19.08;4.45;;;27.60;66.00;;;;;;5104629;28;20362;-50
2021/04/20 06:17:47;;;;;;;10.95;4.07;;;27.60;66.20;;;;;;5104154;28;20073;-51
2021/04/20 06:20:16;;;;;;;11.65;4.30;;;27.50;66.60;;;;;;5104059;28;20027;-53
2021/04/20 06:22:49;;;;;;;12.80;4.00;;;27.50;66.40;;;;;;5104194;28;20019;-51
2021/04/20 06:25:18;;;;;;;11.95;3.97;;;27.50;66.90;;;;;;5085975;28;20218;-50
2021/04/20 06:27:46;;;;;;;15.52;4.93;;;27.40;66.80;;;;;;5104132;28;20064;-51
2021/04/20 06:30:15;;;;;;;8.85;4.05;;;27.50;66.70;;;;;;5104135;28;20097;-53
2021/04/20 06:32:43;;;;;;;11.32;4.28;;;27.50;66.40;;;;;;5104008;28;20020;-53
2021/04/20 06:35:12;;;;;;;12.13;4.32;;;27.50;66.50;;;;;;5104082;28;20054;-56
2021/04/20 06:37:41;;;;;;;12.93;3.75;;;27.40;66.30;;;;;;5104114;28;20145;-52
2021/04/20 06:40:12;;;;;;;10.52;4.32;;;27.40;66.50;;;;;;5103967;28;20307;-51
2021/04/20 06:42:48;;;;;;;11.70;4.22;;;27.40;66.80;;;;;;5106028;28;20020;-51
2021/04/20 06:45:43;;;;;;;12.77;4.45;;;27.40;67.10;;;;;;5107529;28;20028;-53
2021/04/20 06:48:46;;;;;;;11.48;4.00;;;27.30;67.50;;;;;;5107798;28;20051;-53
2021/04/20 06:51:25;;;;;;;16.60;4.72;;;27.30;68.00;;;;;;5107761;28;20020;-50
2021/04/20 06:54:19;;;;;;;13.25;4.75;;;27.20;67.90;;;;;;5107756;28;20115;-51
2021/04/20 06:56:54;;;;;;;17.92;4.70;;;27.20;68.00;;;;;;5103642;28;20035;-50
2021/04/20 06:59:43;;;;;;;12.35;4.00;;;27.20;67.70;;;;;;5107841;28;20032;-51
2021/04/20 07:02:22;;;;;;;13.30;4.30;;;27.20;67.60;;;;;;5107346;28;20028;-51
2021/04/20 07:04:58;;;;;;;18.25;4.90;;;27.20;67.80;;;;;;5107839;28;20031;-51
2021/04/20 07:07:38;;;;;;;12.68;4.20;;;27.20;67.50;;;;;;5107347;28;20065;-53
2021/04/20 07:10:11;;;;;;;11.25;4.18;;;27.20;67.60;;;;;;5107852;28;20020;-51
2021/04/20 07:12:39;;;;;;;14.18;4.25;;;27.20;67.40;;;;;;5107271;28;20020;-50
2021/04/20 07:15:08;;;;;;;11.48;4.20;;;27.20;67.20;;;;;;5107230;28;20032;-51
2021/04/20 07:17:48;;;;;;;11.40;4.25;;;27.20;67.10;;;;;;5107118;28;20072;-50
2021/04/20 07:20:58;;;;;;;10.32;4.18;;;27.20;66.90;;;;;;5106967;28;20035;-51
2021/04/20 07:24:03;;;;;;;11.45;3.70;;;27.20;66.60;;;;;;5107128;28;20036;-51
2021/04/20 07:27:00;;;;;;;12.82;4.45;;;27.20;66.50;;;;;;5107147;28;20091;-50
2021/04/20 07:29:54;;;;;;;15.35;4.10;;;27.10;66.50;;;;;;5107260;28;20020;-56
2021/04/20 07:32:37;;;;;;;14.38;4.30;;;27.20;66.10;;;;;;5106966;28;20016;-50
2021/04/20 07:35:22;;;;;;;13.02;4.93;;;27.20;65.90;;;;;;5107393;28;20035;-49
2021/04/20 07:38:02;;;;;;;12.20;4.10;;;27.10;65.70;;;;;;5106588;28;20020;-51
2021/04/20 07:40:44;;;;;;;8.27;3.75;;;27.10;66.00;;;;;;5106727;28;20020;-50
2021/04/20 07:43:52;;;;;;;10.63;4.07;;;27.10;65.90;;;;;;5106532;28;20249;-51
2021/04/20 07:46:37;;;;;;;11.45;3.97;;;27.20;65.90;;;;;;5079060;28;20225;-54
2021/04/20 07:49:16;;;;;;;13.55;4.07;;;27.10;65.70;;;;;;5106770;28;20069;-56
2021/04/20 07:51:52;;;;;;;11.65;4.10;;;27.10;65.80;;;;;;5106500;28;20062;-52
2021/04/20 07:54:39;;;;;;;9.70;4.13;;;27.10;65.90;;;;;;5106128;28;20028;-51
2021/04/20 07:57:26;;;;;;;12.10;4.22;;;27.10;65.90;;;;;;5106558;28;20016;-51
2021/04/20 07:59:53;;;;;;;11.55;3.78;;;27.10;65.90;;;;;;5106706;28;20205;-50
2021/04/20 08:02:41;;;;;;;9.88;3.80;;;27.00;65.80;;;;;;5106364;28;20012;-50
2021/04/20 08:05:27;;;;;;;11.95;4.10;;;27.00;65.80;;;;;;5106010;28;20042;-53
2021/04/20 08:08:00;;;;;;;11.38;4.30;;;27.00;65.60;;;;;;5106207;28;20020;-50
2021/04/20 08:10:35;;;;;;;13.43;3.92;;;27.00;65.90;;;;;;5106012;28;20016;-51
2021/04/20 08:13:16;;;;;;;14.95;4.28;;;27.00;65.80;;;;;;5106110;28;20028;-56
2021/04/20 08:15:55;;;;;;;13.95;4.05;;;27.00;66.00;;;;;;5105942;28;20012;-50
2021/04/20 08:18:54;;;;;;;10.35;3.83;;;27.00;66.00;;;;;;5106032;28;20078;-52
2021/04/20 08:21:22;;;;;;;10.25;4.10;;;27.00;65.90;;;;;;5051289;28;20240;-58
2021/04/20 08:23:51;;;;;;;13.25;4.82;;;27.00;66.20;;;;;;5105862;28;20061;-49
2021/04/20 08:26:27;;;;;;;14.63;4.80;;;27.00;66.10;;;;;;5105614;28;20028;-54
2021/04/20 08:29:10;;;;;;;14.48;4.60;;;26.90;66.30;;;;;;5087995;28;20020;-50
2021/04/20 08:31:52;;;;;;;11.65;4.28;;;26.90;66.70;;;;;;5105542;28;20204;-55
2021/04/20 08:34:30;;;;;;;11.80;4.18;;;26.90;66.90;;;;;;5106098;28;20035;-51
2021/04/20 08:37:36;;;;;;;10.43;4.13;;;26.90;67.00;;;;;;5105538;28;20032;-50
2021/04/20 08:40:13;;;;;;;12.40;4.38;;;26.80;67.00;;;;;;5050149;28;20032;-50
2021/04/20 08:43:11;;;;;;;11.82;4.25;;;26.80;67.00;;;;;;5105349;28;20020;-54
2021/04/20 08:45:59;;;;;;;13.65;4.43;;;26.80;66.90;;;;;;5105485;28;20096;-53
2021/04/20 08:48:50;;;;;;;10.63;4.13;;;26.80;66.90;;;;;;5105403;28;20016;-51
2021/04/20 08:51:44;;;;;;;11.93;4.50;;;26.80;67.00;;;;;;5105354;28;20023;-50
2021/04/20 08:54:52;;;;;;;17.08;5.18;;;26.80;66.90;;;;;;5105686;28;20047;-56
2021/04/20 08:57:40;;;;;;;13.60;4.70;;;26.80;66.80;;;;;;5050239;28;20024;-52
2021/04/20 09:00:11;;;;;;;13.60;5.25;;;26.80;67.00;;;;;;5105069;28;20028;-53
2021/04/20 09:03:26;;;;;;;15.63;5.20;;;26.80;67.00;;;;;;5105184;28;20370;-50
2021/04/20 09:05:59;;;;;;;13.95;4.88;;;26.80;67.00;;;;;;5105083;28;20091;-51
2021/04/20 09:08:44;;;;;;;19.25;4.35;;;26.80;67.20;;;;;;5104896;28;20081;-53
2021/04/20 09:11:27;;;;;;;13.63;5.25;;;26.80;67.20;;;;;;5104960;28;20291;-50
2021/04/20 09:14:02;;;;;;;11.35;4.50;;;26.70;67.40;;;;;;5105310;28;20294;-47
2021/04/20 09:16:47;;;;;;;11.90;4.68;;;26.70;67.40;;;;;;5104948;28;20024;-54
2021/04/20 09:19:42;;;;;;;18.38;4.78;;;26.70;67.50;;;;;;5105214;28;20023;-52
2021/04/20 09:22:35;;;;;;;10.60;4.70;;;26.70;67.60;;;;;;5087281;28;20063;-55
2021/04/20 09:25:28;;;;;;;16.25;4.65;;;26.70;67.60;;;;;;5105331;28;20036;-51
2021/04/20 09:28:37;;;;;;;15.05;4.70;;;26.70;67.50;;;;;;5104864;28;20295;-50
2021/04/20 09:31:18;;;;;;;10.93;4.28;;;26.70;67.60;;;;;;5057736;28;20047;-55
2021/04/20 09:33:54;;;;;;;13.07;4.93;;;26.70;67.50;;;;;;5104737;28;20028;-51
2021/04/20 09:36:23;;;;;;;13.02;5.03;;;26.70;67.60;;;;;;5104772;28;20065;-50
2021/04/20 09:38:50;;;;;;;14.88;4.93;;;26.60;67.50;;;;;;5104659;28;20309;-54
2021/04/20 09:41:23;;;;;;;10.27;4.38;;;26.60;67.80;;;;;;5104808;28;20028;-49
2021/04/20 09:43:56;;;;;;;12.07;4.30;;;26.60;67.90;;;;;;5104768;28;20028;-50
2021/04/20 09:46:33;;;;;;;12.52;4.90;;;26.60;68.00;;;;;;5104318;28;20211;-50
2021/04/20 09:48:59;;;;;;;13.23;4.72;;;26.60;68.10;;;;;;5104691;28;20031;-50
2021/04/20 09:51:35;;;;;;;11.38;5.03;;;26.60;68.60;;;;;;5104416;28;20015;-55
2021/04/20 09:54:11;;;;;;;14.52;4.43;;;26.60;67.90;;;;;;5104683;28;20020;-56
2021/04/20 09:56:47;;;;;;;15.85;5.18;;;26.60;67.60;;;;;;5104468;28;20253;-51
2021/04/20 09:59:42;;;;;;;12.70;4.72;;;26.60;67.40;;;;;;5104948;28;20028;-51
2021/04/20 10:02:25;;;;;;;12.02;4.63;;;26.60;67.30;;;;;;5104232;28;20026;-50
2021/04/20 10:05:07;;;;;;;8.73;4.20;;;26.60;67.30;;;;;;5104713;28;20034;-49
2021/04/20 10:07:52;;;;;;;18.92;4.60;;;26.60;67.50;;;;;;5104653;28;20083;-51
2021/04/20 10:10:42;;;;;;;13.20;4.15;;;26.60;67.40;;;;;;5104387;28;20024;-53
2021/04/20 10:13:30;;;;;;;9.80;4.63;;;26.60;67.40;;;;;;5104372;28;20024;-52
2021/04/20 10:16:05;;;;;;;13.98;4.68;;;26.60;67.20;;;;;;5104483;28;20020;-53
2021/04/20 10:18:53;;;;;;;12.23;4.60;;;26.60;67.10;;;;;;5107454;28;20307;-50
2021/04/20 10:21:23;;;;;;;14.98;5.03;;;26.60;67.30;;;;;;5090197;28;20067;-54
2021/04/20 10:24:14;;;;;;;16.00;5.00;;;26.50;67.00;;;;;;5108705;28;20095;-50
2021/04/20 10:26:56;;;;;;;12.18;5.07;;;26.50;67.10;;;;;;5108151;28;20043;-51
2021/04/20 10:29:40;;;;;;;17.42;4.93;;;26.50;67.20;;;;;;5108443;28;20024;-51
2021/04/20 10:32:17;;;;;;;17.60;4.85;;;26.50;67.70;;;;;;5108234;28;20018;-51
2021/04/20 10:34:52;;;;;;;15.52;5.57;;;26.50;67.40;;;;;;5108345;28;20099;-50
2021/04/20 10:37:28;;;;;;;13.90;5.07;;;26.50;67.60;;;;;;5108083;28;20030;-53
2021/04/20 10:39:57;;;;;;;14.63;5.18;;;26.50;67.80;;;;;;5108262;28;20030;-50
2021/04/20 10:42:29;;;;;;;15.93;5.32;;;26.50;67.70;;;;;;5107483;28;20023;-56
2021/04/20 10:44:57;;;;;;;12.52;5.20;;;26.50;67.80;;;;;;5108052;28;20209;-53
2021/04/20 10:47:26;;;;;;;14.90;5.47;;;26.50;68.00;;;;;;5107176;28;20023;-50
2021/04/20 10:50:00;;;;;;;16.23;5.38;;;26.50;68.40;;;;;;5096958;28;20021;-60
2021/04/20 10:52:32;;;;;;;14.43;5.38;;;26.50;68.70;;;;;;5087824;28;20017;-51
2021/04/20 10:55:08;;;;;;;18.50;5.68;;;26.50;68.80;;;;;;5107253;28;20325;-57
2021/04/20 10:57:39;;;;;;;26.30;6.15;;;26.50;68.90;;;;;;5107154;28;20030;-50
2021/04/20 11:00:07;;;;;;;15.80;5.07;;;26.50;68.90;;;;;;5107433;28;20034;-52
2021/04/20 11:02:42;;;;;;;15.82;6.03;;;26.50;69.10;;;;;;5107115;28;20020;-51
2021/04/20 11:05:11;;;;;;;17.83;6.43;;;26.50;68.90;;;;;;5106893;28;20027;-58
2021/04/20 11:07:42;;;;;;;21.38;6.43;;;26.50;69.10;;;;;;5106781;28;20020;-56
2021/04/20 11:10:11;;;;;;;22.60;6.72;;;26.50;68.90;;;;;;5106833;28;20024;-56
2021/04/20 11:12:42;;;;;;;17.58;6.88;;;26.60;69.10;;;;;;5106864;28;20100;-47
2021/04/20 11:15:09;;;;;;;21.48;6.45;;;26.60;69.20;;;;;;5107163;28;20028;-50
2021/04/20 11:17:54;;;;;;;22.73;6.88;;;26.70;69.20;;;;;;5107442;28;20257;-49
2021/04/20 11:20:27;;;;;;;21.30;6.05;;;26.80;69.30;;;;;;5107321;28;20095;-50
2021/04/20 11:23:09;;;;;;;20.75;6.35;;;26.80;69.10;;;;;;5107008;28;20026;-50
2021/04/20 11:25:54;;;;;;;15.90;5.82;;;26.90;69.30;;;;;;5105319;28;20019;-57
2021/04/20 11:28:39;;;;;;;16.38;6.20;;;27.00;69.30;;;;;;5104084;28;20097;-50
2021/04/20 11:31:27;;;;;;;18.60;5.88;;;27.00;69.10;;;;;;5104664;28;20020;-51
2021/04/20 11:34:14;;;;;;;24.60;6.47;;;27.20;68.90;;;;;;5090948;28;20055;-48
2021/04/20 11:36:41;;;;;;;16.20;5.88;;;27.30;68.60;;;;;;5104624;28;20012;-51
2021/04/20 11:39:11;;;;;;;19.27;5.68;;;27.30;68.60;;;;;;5105098;28;20020;-48
2021/04/20 11:41:45;;;;;;;16.85;6.63;;;27.40;68.30;;;;;;5106468;28;20039;-49
2021/04/20 11:44:15;;;;;;;20.90;6.82;;;27.50;68.40;;;;;;5106792;28;20024;-44
2021/04/20 11:46:48;;;;;;;24.27;7.30;;;27.60;68.30;;;;;;5106907;28;20024;-46
2021/04/20 11:49:26;;;;;;;25.05;6.43;;;27.70;68.20;;;;;;5107343;28;20057;-53
2021/04/20 11:51:59;;;;;;;21.00;5.70;;;27.70;68.00;;;;;;5106668;28;20299;-47
2021/04/20 11:54:29;;;;;;;19.20;6.00;;;27.80;67.80;;;;;;5107197;28;20280;-51
2021/04/20 11:57:02;;;;;;;14.15;5.60;;;27.90;67.40;;;;;;5106562;28;20246;-49
2021/04/20 11:59:31;;;;;;;14.93;5.65;;;28.00;67.60;;;;;;5107241;28;20125;-52
2021/04/20 12:02:00;;;;;;;20.50;6.35;;;28.00;67.10;;;;;;5106365;28;20024;-58
2021/04/20 12:04:34;;;;;;;17.15;5.68;;;28.00;67.00;;;;;;5106320;28;20028;-56
2021/04/20 12:07:02;;;;;;;16.42;5.32;;;28.10;67.10;;;;;;5105886;28;20020;-55
2021/04/20 12:09:39;;;;;;;15.00;5.82;;;28.10;67.10;;;;;;5106354;28;20024;-57
2021/04/20 12:12:07;;;;;;;16.00;5.63;;;28.20;67.40;;;;;;5105902;28;20012;-48
2021/04/20 12:14:42;;;;;;;13.80;5.63;;;28.20;67.40;;;;;;5106260;28;20039;-46
2021/04/20 12:17:08;;;;;;;19.02;5.90;;;28.10;67.60;;;;;;5105761;28;20308;-54
2021/04/20 12:19:37;;;;;;;21.63;6.20;;;28.10;68.70;;;;;;5105863;28;20100;-46
2021/04/20 12:22:06;;;;;;;17.13;5.78;;;28.10;68.40;;;;;;5105516;28;20048;-49
2021/04/20 12:24:36;;;;;;;16.90;6.03;;;28.10;68.50;;;;;;5106049;28;20212;-52
2021/04/20 12:27:04;;;;;;;15.45;6.25;;;28.10;68.70;;;;;;5106004;28;20198;-48
2021/04/20 12:29:42;;;;;;;19.15;6.25;;;28.10;68.90;;;;;;5106198;28;20028;-51
2021/04/20 12:32:16;;;;;;;25.00;6.68;;;28.10;69.00;;;;;;5105751;28;20020;-48
2021/04/20 12:34:44;;;;;;;17.45;6.05;;;28.10;69.10;;;;;;5106521;28;20032;-44
2021/04/20 12:37:11;;;;;;;19.05;6.03;;;28.10;69.10;;;;;;5106280;28;20079;-47
2021/04/20 12:39:41;;;;;;;18.35;5.70;;;28.10;69.20;;;;;;5105698;28;20024;-46
2021/04/20 12:42:11;;;;;;;13.52;5.18;;;28.10;69.00;;;;;;5105455;28;20024;-48
2021/04/20 12:44:45;;;;;;;16.83;5.95;;;28.10;69.00;;;;;;5105927;28;20342;-49
2021/04/20 12:47:12;;;;;;;18.98;5.75;;;28.10;69.20;;;;;;5105268;28;20019;-45
2021/04/20 12:49:48;;;;;;;21.85;6.40;;;28.20;69.00;;;;;;5105463;28;20024;-49
2021/04/20 12:52:19;;;;;;;16.58;5.47;;;28.20;69.10;;;;;;5105244;28;20234;-52
2021/04/20 12:54:49;;;;;;;16.05;5.75;;;28.30;69.10;;;;;;5105498;28;20024;-44
2021/04/20 12:57:21;;;;;;;15.15;5.35;;;28.30;68.70;;;;;;5104793;28;20024;-46
2021/04/20 12:59:56;;;;;;;12.75;5.80;;;28.40;68.40;;;;;;5105153;28;20222;-46
2021/04/20 13:02:25;;;;;;;13.10;5.35;;;28.40;68.30;;;;;;5104919;28;20313;-48
2021/04/20 13:11:38;;;;;;;15.85;5.95;;;28.60;68.20;;;;;;5104902;28;20050;-48
2021/04/20 13:14:06;;;;;;;17.70;6.53;;;28.60;68.70;;;;;;5105060;28;20020;-49
2021/04/20 13:16:34;;;;;;;18.27;5.57;;;28.70;68.60;;;;;;5104420;28;20108;-52
2021/04/20 13:19:08;;;;;;;19.38;5.75;;;28.70;68.50;;;;;;5104333;28;20020;-50
2021/04/20 13:21:36;;;;;;;14.02;5.30;;;28.70;68.90;;;;;;5104349;28;20044;-47
2021/04/20 13:24:04;;;;;;;18.17;5.47;;;28.80;68.70;;;;;;5104228;28;20028;-50
2021/04/20 13:26:36;;;;;;;13.32;5.28;;;28.80;68.70;;;;;;5104607;28;20027;-48
2021/04/20 13:29:09;;;;;;;16.00;5.60;;;28.90;69.00;;;;;;5105063;28;20111;-55
2021/04/20 13:31:39;;;;;;;9.60;4.82;;;28.90;68.70;;;;;;5104643;28;20024;-59
2021/04/20 13:34:21;;;;;;;12.55;4.82;;;29.00;68.80;;;;;;5104931;28;20037;-54